Time;durP1;ratioP1;P1;durP2;ratioP2;P2;SDS_P1;SDS_P2;PMS_P1;PMS_P2;Temp;Humidity;BMP_temperature;BMP_pressure;BME280_temperature;BME280_humidity;BME280_pressure;Samples;Min_cycle;Max_cycle;Signal;HPM_P1;HPM_P2
2022/06/23 00:01:59;;;;;;;15.27;7.60;;;15.20;99.90;;;;;;4132327;28;20186;-73
2022/06/23 00:04:00;;;;;;;12.47;11.10;;;15.20;99.90;;;;;;4132307;28;20189;-72
2022/06/23 00:06:05;;;;;;;13.80;10.07;;;15.20;99.90;;;;;;4132168;28;20488;-73
2022/06/23 00:08:11;;;;;;;13.20;10.23;;;15.10;99.90;;;;;;4131565;28;20229;-72
2022/06/23 00:10:23;;;;;;;12.30;8.87;;;15.20;99.90;;;;;;4132323;28;20179;-73
2022/06/23 00:12:35;;;;;;;14.43;9.17;;;15.10;99.90;;;;;;4132394;28;20178;-72
2022/06/23 00:14:36;;;;;;;12.70;7.33;;;15.00;99.90;;;;;;4132522;28;20178;-72
2022/06/23 00:16:37;;;;;;;11.40;8.27;;;15.00;99.90;;;;;;4132367;28;20186;-73
2022/06/23 00:18:38;;;;;;;14.57;8.30;;;14.90;99.90;;;;;;4131629;28;20194;-73
2022/06/23 00:20:48;;;;;;;10.63;8.10;;;14.90;99.90;;;;;;4131860;28;20185;-73
2022/06/23 00:22:55;;;;;;;18.63;14.23;;;14.90;99.90;;;;;;4130803;28;20643;-72
2022/06/23 00:24:57;;;;;;;18.57;13.80;;;14.80;99.90;;;;;;4131868;28;20179;-72
2022/06/23 00:26:58;;;;;;;14.70;11.50;;;14.80;99.90;;;;;;4130644;28;20684;-72
2022/06/23 00:29:03;;;;;;;14.03;8.47;;;14.80;99.90;;;;;;4131180;28;20285;-72
2022/06/23 00:31:07;;;;;;;18.17;11.57;;;14.70;99.90;;;;;;4130819;28;20175;-72
2022/06/23 00:33:19;;;;;;;13.63;10.10;;;14.60;99.90;;;;;;4132070;28;20197;-73
2022/06/23 00:35:20;;;;;;;12.03;7.83;;;14.60;99.90;;;;;;4132305;28;20642;-73
2022/06/23 00:37:21;;;;;;;12.23;7.87;;;14.60;99.90;;;;;;4131396;28;20201;-73
2022/06/23 00:39:41;;;;;;;10.20;8.43;;;14.60;99.90;;;;;;4131602;28;20743;-72
2022/06/23 00:41:42;;;;;;;20.57;11.57;;;14.70;99.90;;;;;;4130297;28;20178;-73
2022/06/23 00:43:48;;;;;;;17.27;7.70;;;14.60;99.90;;;;;;4132298;28;20638;-73
2022/06/23 00:46:25;;;;;;;14.97;8.07;;;14.60;99.90;;;;;;4130462;28;20183;-73
2022/06/23 00:49:06;;;;;;;11.90;7.33;;;14.60;99.90;;;;;;4129819;28;20297;-72
2022/06/23 00:51:19;;;;;;;14.50;6.80;;;14.60;99.90;;;;;;4121521;28;20204;-73
2022/06/23 00:53:26;;;;;;;14.57;7.97;;;14.60;99.90;;;;;;4130866;28;20182;-72
2022/06/23 00:55:40;;;;;;;11.73;7.00;;;14.60;99.90;;;;;;4130545;28;20265;-72
2022/06/23 00:57:52;;;;;;;13.93;7.13;;;14.60;99.90;;;;;;4129487;28;20209;-73
2022/06/23 01:00:24;;;;;;;8.83;6.77;;;14.60;99.90;;;;;;4131556;28;20206;-72
2022/06/23 01:02:33;;;;;;;16.93;8.13;;;14.50;99.90;;;;;;4129543;28;20198;-73
2022/06/23 01:04:40;;;;;;;13.43;7.00;;;14.50;99.90;;;;;;4131506;28;20170;-72
2022/06/23 01:06:49;;;;;;;17.60;7.13;;;14.50;99.90;;;;;;4131297;28;20201;-72
2022/06/23 01:08:56;;;;;;;13.43;7.63;;;14.60;99.90;;;;;;4130744;28;20559;-73
2022/06/23 01:11:24;;;;;;;16.83;9.93;;;14.50;99.90;;;;;;4129914;28;20281;-72
2022/06/23 01:13:42;;;;;;;14.87;7.60;;;14.60;99.90;;;;;;4131599;28;20182;-73
2022/06/23 01:15:51;;;;;;;16.07;7.97;;;14.50;99.90;;;;;;4131454;28;20173;-72
2022/06/23 01:18:15;;;;;;;27.87;11.53;;;14.40;99.90;;;;;;4130952;28;20906;-73
2022/06/23 01:20:30;;;;;;;50.50;16.90;;;14.40;99.90;;;;;;4129825;28;20194;-72
2022/06/23 01:22:38;;;;;;;141.97;18.63;;;14.40;99.90;;;;;;4131836;28;20257;-72
2022/06/23 01:24:58;;;;;;;49.53;12.83;;;14.50;99.90;;;;;;4131325;28;20162;-73
2022/06/23 01:27:19;;;;;;;35.33;11.23;;;14.50;99.90;;;;;;4131713;28;20175;-73
2022/06/23 01:29:26;;;;;;;77.77;14.87;;;14.60;99.90;;;;;;4131414;28;20181;-72
2022/06/23 01:31:37;;;;;;;29.90;9.53;;;14.60;99.90;;;;;;4130454;28;20182;-73
2022/06/23 01:33:44;;;;;;;18.60;9.27;;;14.60;99.90;;;;;;4131629;28;20257;-72
2022/06/23 01:36:10;;;;;;;17.50;8.10;;;14.60;99.90;;;;;;4130823;28;20558;-71
2022/06/23 01:38:43;;;;;;;16.37;8.03;;;14.60;99.90;;;;;;4129840;28;20210;-73
2022/06/23 01:40:54;;;;;;;15.63;7.97;;;14.60;99.90;;;;;;4131084;28;20731;-73
2022/06/23 01:42:58;;;;;;;31.60;9.37;;;14.60;99.90;;;;;;4131230;28;20174;-73
2022/06/23 01:45:04;;;;;;;28.57;8.93;;;14.50;99.90;;;;;;4131288;28;20654;-73
2022/06/23 01:47:22;;;;;;;24.33;9.43;;;14.50;99.90;;;;;;4130091;28;20241;-73
2022/06/23 01:49:33;;;;;;;25.87;8.97;;;14.50;99.90;;;;;;4130785;28;20606;-72
2022/06/23 01:51:54;;;;;;;38.90;11.70;;;14.50;99.90;;;;;;4131005;28;20189;-72
2022/06/23 01:54:21;;;;;;;17.20;7.90;;;14.50;99.90;;;;;;4131237;28;20215;-72
2022/06/23 01:56:39;;;;;;;12.27;7.93;;;14.40;99.90;;;;;;4129502;28;20185;-72
2022/06/23 01:59:10;;;;;;;16.03;7.83;;;14.30;99.90;;;;;;4129955;28;20259;-71
2022/06/23 02:01:22;;;;;;;11.00;6.97;;;14.30;99.90;;;;;;4131002;28;20182;-72
2022/06/23 02:03:38;;;;;;;11.57;6.90;;;14.30;99.90;;;;;;4130105;28;20612;-72
2022/06/23 02:05:49;;;;;;;14.00;7.43;;;14.30;99.90;;;;;;4131157;28;20173;-72
2022/06/23 02:08:14;;;;;;;15.47;6.90;;;14.30;99.90;;;;;;4130403;28;20194;-72
2022/06/23 02:10:20;;;;;;;10.37;7.20;;;14.30;99.90;;;;;;4129904;28;20189;-72
2022/06/23 02:12:44;;;;;;;13.47;8.13;;;14.30;99.90;;;;;;4130917;28;20186;-72
2022/06/23 02:14:49;;;;;;;16.97;7.33;;;14.30;99.90;;;;;;4130875;28;20236;-71
2022/06/23 02:17:01;;;;;;;18.23;7.03;;;14.20;99.90;;;;;;4131376;28;20182;-72
2022/06/23 02:19:16;;;;;;;13.23;6.43;;;14.30;99.90;;;;;;4130439;28;20218;-72
2022/06/23 02:21:23;;;;;;;14.87;7.27;;;14.20;99.90;;;;;;4129379;28;20216;-72
2022/06/23 02:23:23;;;;;;;11.43;6.67;;;14.20;99.90;;;;;;4131034;28;20704;-72
2022/06/23 02:25:32;;;;;;;10.20;7.00;;;14.20;99.90;;;;;;4130669;28;20178;-71
2022/06/23 02:27:46;;;;;;;11.87;6.80;;;14.10;99.90;;;;;;4130107;28;20178;-72
2022/06/23 02:30:05;;;;;;;11.67;6.83;;;14.10;99.90;;;;;;4130804;28;20544;-72
2022/06/23 02:32:17;;;;;;;11.77;7.60;;;14.10;99.90;;;;;;4130840;28;20205;-72
2022/06/23 02:34:24;;;;;;;16.20;7.53;;;14.10;99.90;;;;;;4130762;28;20180;-71
2022/06/23 02:36:54;;;;;;;14.83;6.43;;;14.10;99.90;;;;;;4129122;28;20190;-72
2022/06/23 02:39:02;;;;;;;11.83;7.20;;;14.00;99.90;;;;;;4127494;28;20233;-71
2022/06/23 02:41:02;;;;;;;14.10;7.33;;;14.00;99.90;;;;;;4130927;28;20193;-72
2022/06/23 02:43:10;;;;;;;15.47;7.57;;;14.00;99.90;;;;;;4130547;28;20182;-72
2022/06/23 02:45:52;;;;;;;12.87;7.50;;;13.80;99.90;;;;;;4129268;28;20182;-70
2022/06/23 02:48:23;;;;;;;13.83;6.80;;;13.80;99.90;;;;;;4130502;28;20217;-71
2022/06/23 02:50:51;;;;;;;12.27;7.00;;;13.80;99.90;;;;;;4133547;28;20194;-72
2022/06/23 02:53:19;;;;;;;11.60;7.00;;;13.70;99.90;;;;;;4135736;28;20245;-71
2022/06/23 02:55:53;;;;;;;9.77;6.57;;;13.60;99.90;;;;;;4132862;28;20672;-72
2022/06/23 02:58:05;;;;;;;9.87;5.83;;;13.60;99.90;;;;;;4132010;28;20664;-72
2022/06/23 03:00:32;;;;;;;10.73;6.40;;;13.60;99.90;;;;;;4133804;28;20210;-71
2022/06/23 03:02:58;;;;;;;10.47;6.50;;;13.60;99.90;;;;;;4134158;28;20246;-71
2022/06/23 03:05:19;;;;;;;15.77;6.37;;;13.50;99.90;;;;;;4134054;28;20206;-71
2022/06/23 03:07:25;;;;;;;11.80;6.50;;;13.60;99.90;;;;;;4132341;28;20186;-70
2022/06/23 03:09:32;;;;;;;11.50;6.13;;;13.50;99.90;;;;;;4133510;28;20185;-71
2022/06/23 03:11:56;;;;;;;11.17;5.83;;;13.40;99.90;;;;;;4133385;28;20522;-72
2022/06/23 03:13:59;;;;;;;10.30;6.43;;;13.40;99.90;;;;;;4131042;28;20208;-71
2022/06/23 03:16:02;;;;;;;9.37;5.63;;;13.40;99.90;;;;;;4132196;28;20198;-71
2022/06/23 03:18:15;;;;;;;12.27;5.70;;;13.40;99.90;;;;;;4132587;28;20210;-71
2022/06/23 03:20:51;;;;;;;11.53;6.17;;;13.40;99.90;;;;;;4133169;28;20205;-72
2022/06/23 03:23:09;;;;;;;12.43;6.43;;;13.50;99.90;;;;;;4132594;28;20224;-72
2022/06/23 03:25:31;;;;;;;11.27;6.03;;;13.50;99.90;;;;;;4132270;28;20191;-71
2022/06/23 03:27:47;;;;;;;7.57;5.40;;;13.60;99.90;;;;;;4148604;28;20185;-71
2022/06/23 03:30:15;;;;;;;8.87;5.10;;;13.50;99.90;;;;;;4134099;28;20178;-72
2022/06/23 03:32:44;;;;;;;10.23;5.33;;;13.50;99.90;;;;;;4134686;28;20190;-71
2022/06/23 03:34:59;;;;;;;9.03;5.93;;;13.40;99.90;;;;;;4133345;28;20252;-71
2022/06/23 03:37:08;;;;;;;11.03;6.40;;;13.30;99.90;;;;;;4132986;28;20192;-71
2022/06/23 03:41:46;;;;;;;12.43;6.30;;;13.40;99.90;;;;;;4134294;28;20648;-71
2022/06/23 03:43:54;;;;;;;11.87;6.20;;;13.50;99.90;;;;;;4134664;28;20174;-71
2022/06/23 03:46:00;;;;;;;8.60;5.07;;;13.50;99.90;;;;;;4146958;28;20217;-71
2022/06/23 03:48:07;;;;;;;11.60;6.13;;;13.50;99.90;;;;;;4151468;28;20206;-71
2022/06/23 03:50:24;;;;;;;8.23;5.50;;;13.60;99.90;;;;;;4150541;28;20249;-71
2022/06/23 03:52:36;;;;;;;9.07;5.50;;;13.60;99.90;;;;;;4152123;28;20214;-71
2022/06/23 03:54:49;;;;;;;9.13;6.07;;;13.50;99.90;;;;;;4152083;28;20166;-71
2022/06/23 03:56:58;;;;;;;9.17;7.13;;;13.40;99.90;;;;;;4150161;28;20174;-71
2022/06/23 03:59:04;;;;;;;11.47;6.20;;;13.40;99.90;;;;;;4150292;28;20299;-71
2022/06/23 04:01:11;;;;;;;9.97;5.93;;;13.30;99.90;;;;;;4150479;28;20208;-71
2022/06/23 04:03:45;;;;;;;9.20;5.17;;;13.40;99.90;;;;;;4151955;28;20177;-70
2022/06/23 04:05:54;;;;;;;11.37;6.10;;;13.40;99.90;;;;;;4151699;28;20465;-71
2022/06/23 04:07:57;;;;;;;30.30;8.37;;;13.40;99.90;;;;;;4150669;28;20197;-72
2022/06/23 04:10:27;;;;;;;35.33;8.33;;;13.50;99.90;;;;;;4150199;28;20710;-71
2022/06/23 04:12:29;;;;;;;32.37;9.53;;;13.50;99.90;;;;;;4162480;28;20196;-71
2022/06/23 04:14:42;;;;;;;35.93;9.10;;;13.50;99.90;;;;;;4151993;28;20182;-71
2022/06/23 04:16:43;;;;;;;19.07;7.40;;;13.50;99.90;;;;;;4150993;28;20660;-71
2022/06/23 04:18:46;;;;;;;16.17;7.50;;;13.40;99.90;;;;;;4150690;28;20236;-71
2022/06/23 04:20:56;;;;;;;11.43;7.73;;;13.50;99.90;;;;;;4151639;28;20181;-72
2022/06/23 04:23:11;;;;;;;10.23;5.87;;;13.40;99.90;;;;;;4153000;28;20178;-71
2022/06/23 04:25:20;;;;;;;8.67;5.70;;;13.40;99.90;;;;;;4151828;28;20178;-71
2022/06/23 04:27:38;;;;;;;7.63;5.03;;;13.40;99.90;;;;;;4151696;28;20188;-71
2022/06/23 04:29:39;;;;;;;9.10;5.47;;;13.40;99.90;;;;;;4151974;28;20180;-71
2022/06/23 04:31:48;;;;;;;9.57;5.13;;;13.40;99.90;;;;;;4148954;28;20680;-71
2022/06/23 04:33:49;;;;;;;8.07;4.70;;;13.50;99.90;;;;;;4152501;28;20180;-71
2022/06/23 04:35:56;;;;;;;5.67;4.20;;;13.60;99.90;;;;;;4152135;28;20217;-72
2022/06/23 04:38:09;;;;;;;6.57;4.87;;;13.60;99.90;;;;;;4151705;28;20206;-72
2022/06/23 04:40:37;;;;;;;8.40;4.80;;;13.60;99.90;;;;;;4151364;28;20264;-71
2022/06/23 04:42:47;;;;;;;7.30;4.50;;;13.60;99.90;;;;;;4151321;28;20732;-71
2022/06/23 04:44:52;;;;;;;6.30;4.43;;;13.70;99.90;;;;;;4152708;28;20166;-72
2022/06/23 04:46:59;;;;;;;6.40;4.70;;;13.70;99.90;;;;;;4152190;28;20216;-72
2022/06/23 04:49:02;;;;;;;6.83;4.37;;;13.70;99.90;;;;;;4150571;28;20236;-71
2022/06/23 04:51:16;;;;;;;7.67;5.03;;;13.60;99.90;;;;;;4152125;28;20206;-70
2022/06/23 04:53:46;;;;;;;6.73;4.80;;;13.70;99.90;;;;;;4148788;28;20173;-71
2022/06/23 04:56:04;;;;;;;7.23;3.90;;;13.70;99.90;;;;;;4147649;28;20194;-71
2022/06/23 04:58:24;;;;;;;7.93;4.17;;;13.80;99.90;;;;;;4131425;28;20210;-71
2022/06/23 05:00:37;;;;;;;7.53;4.20;;;13.90;99.90;;;;;;4130528;28;20210;-72
2022/06/23 05:02:53;;;;;;;7.70;4.47;;;14.00;99.90;;;;;;4131103;28;20569;-71
2022/06/23 05:05:16;;;;;;;6.43;4.40;;;14.00;99.90;;;;;;4132348;28;20174;-71
2022/06/23 05:07:30;;;;;;;6.53;3.87;;;14.10;99.90;;;;;;4132108;28;20232;-71
2022/06/23 05:09:36;;;;;;;5.80;4.13;;;14.10;99.90;;;;;;4132184;28;20762;-71
2022/06/23 05:11:54;;;;;;;6.10;3.83;;;14.20;99.90;;;;;;4132600;28;20178;-72
2022/06/23 05:14:05;;;;;;;7.17;4.60;;;14.20;99.90;;;;;;4131520;28;20198;-71
2022/06/23 05:16:12;;;;;;;5.97;4.03;;;14.20;99.90;;;;;;4132001;28;20185;-71
2022/06/23 05:18:24;;;;;;;7.20;4.70;;;14.20;99.90;;;;;;4131490;28;20218;-71
2022/06/23 05:20:32;;;;;;;7.43;4.33;;;14.30;99.90;;;;;;4132091;28;20304;-71
2022/06/23 05:22:37;;;;;;;5.27;4.33;;;14.30;99.90;;;;;;4131354;28;20191;-71
2022/06/23 05:24:41;;;;;;;6.27;4.50;;;14.30;99.90;;;;;;4131132;28;20186;-72
2022/06/23 05:27:02;;;;;;;8.03;5.03;;;14.30;99.90;;;;;;4130746;28;20179;-71
2022/06/23 05:29:20;;;;;;;5.30;4.40;;;14.40;99.90;;;;;;4131506;28;20197;-71
2022/06/23 05:31:26;;;;;;;5.00;4.20;;;14.40;99.90;;;;;;4131967;28;20688;-71
2022/06/23 05:33:26;;;;;;;5.00;4.17;;;14.50;99.90;;;;;;4131971;28;20182;-72
2022/06/23 05:35:32;;;;;;;6.93;4.50;;;14.50;99.90;;;;;;4131985;28;20556;-71
2022/06/23 05:37:41;;;;;;;7.37;4.37;;;14.50;99.90;;;;;;4130233;28;20531;-72
2022/06/23 05:40:10;;;;;;;5.53;3.73;;;14.60;99.90;;;;;;4131813;28;20272;-72
2022/06/23 05:42:19;;;;;;;7.50;4.03;;;14.60;99.90;;;;;;4132262;28;20165;-71
2022/06/23 05:44:31;;;;;;;6.53;3.77;;;14.70;99.90;;;;;;4131790;28;20246;-72
2022/06/23 05:46:33;;;;;;;5.57;4.23;;;14.70;99.90;;;;;;4130654;28;20212;-72
2022/06/23 05:48:43;;;;;;;7.83;4.87;;;14.80;99.90;;;;;;4131231;28;20898;-72
2022/06/23 05:50:56;;;;;;;5.93;4.27;;;14.80;99.90;;;;;;4130779;28;20182;-71
2022/06/23 05:53:05;;;;;;;8.40;6.00;;;14.90;99.90;;;;;;4131860;28;20163;-71
2022/06/23 05:55:23;;;;;;;7.67;6.90;;;14.80;99.90;;;;;;4131513;28;20857;-73
2022/06/23 05:57:30;;;;;;;9.90;6.63;;;14.80;99.90;;;;;;4131334;28;20177;-73
2022/06/23 05:59:53;;;;;;;9.27;6.20;;;14.80;99.90;;;;;;4132034;28;20708;-73
2022/06/23 06:02:07;;;;;;;12.93;6.30;;;15.00;99.90;;;;;;4131485;28;20170;-73
2022/06/23 06:04:28;;;;;;;8.17;5.20;;;15.20;99.90;;;;;;4130516;28;20170;-73
2022/06/23 06:06:29;;;;;;;7.63;4.83;;;15.20;99.90;;;;;;4131927;28;20199;-72
2022/06/23 06:09:35;;;;;;;6.40;4.57;;;15.30;99.90;;;;;;4131702;28;20764;-73
2022/06/23 06:10:58;;;;;;;5.53;4.87;;;15.40;99.90;;;;;;4131578;28;20277;-73
2022/06/23 06:12:59;;;;;;;5.60;4.47;;;15.40;99.90;;;;;;4130216;28;20564;-73
2022/06/23 06:15:01;;;;;;;6.13;4.37;;;15.40;99.90;;;;;;4131520;28;20186;-73
2022/06/23 06:17:02;;;;;;;6.17;4.60;;;15.50;99.90;;;;;;4131236;28;20183;-73
2022/06/23 06:19:04;;;;;;;6.20;4.40;;;15.50;99.90;;;;;;4130931;28;20297;-73
2022/06/23 06:21:09;;;;;;;6.37;4.20;;;15.50;99.90;;;;;;4130285;28;20190;-72
2022/06/23 06:23:32;;;;;;;6.50;3.90;;;15.60;99.90;;;;;;4134560;28;20191;-73
2022/06/23 06:25:38;;;;;;;8.03;4.40;;;15.70;99.90;;;;;;4133761;28;20633;-73
2022/06/23 06:27:38;;;;;;;7.33;5.80;;;15.80;99.90;;;;;;4134616;28;20175;-73
2022/06/23 06:29:42;;;;;;;10.23;3.47;;;15.80;99.90;;;;;;4135204;28;20720;-73
2022/06/23 06:31:47;;;;;;;8.33;4.00;;;15.90;99.90;;;;;;4133299;28;20276;-73
2022/06/23 06:34:24;;;;;;;5.60;3.53;;;16.10;99.90;;;;;;4133507;28;20189;-73
2022/06/23 06:36:36;;;;;;;3.53;3.23;;;16.20;99.90;;;;;;4135052;28;20177;-73
2022/06/23 06:38:37;;;;;;;7.07;4.10;;;16.20;99.90;;;;;;4133330;28;20855;-72
2022/06/23 06:40:40;;;;;;;6.43;3.67;;;16.20;99.90;;;;;;4133928;28;20217;-73
2022/06/23 06:42:55;;;;;;;4.03;3.20;;;16.30;99.90;;;;;;4131365;28;20190;-72
2022/06/23 06:44:59;;;;;;;6.23;3.33;;;16.40;99.90;;;;;;4134200;28;20208;-71
2022/06/23 06:47:00;;;;;;;4.80;2.83;;;16.50;99.90;;;;;;4125531;28;20218;-72
2022/06/23 06:49:01;;;;;;;15.93;14.80;;;16.50;99.90;;;;;;4133505;28;20659;-73
2022/06/23 06:51:10;;;;;;;5.93;3.20;;;16.60;99.90;;;;;;4134554;28;20186;-72
2022/06/23 06:53:22;;;;;;;6.20;2.80;;;16.60;99.90;;;;;;4134532;28;20167;-73
2022/06/23 06:55:29;;;;;;;6.23;2.87;;;16.60;99.90;;;;;;4134652;28;20166;-74
2022/06/23 06:58:04;;;;;;;4.13;3.33;;;16.70;99.90;;;;;;4134033;28;20175;-73
2022/06/23 07:00:15;;;;;;;8.07;2.80;;;16.80;99.90;;;;;;4118290;28;20241;-73
2022/06/23 07:02:24;;;;;;;7.23;2.63;;;16.90;99.90;;;;;;4133486;28;20228;-73
2022/06/23 07:04:58;;;;;;;3.00;2.23;;;17.00;99.90;;;;;;4134638;28;20538;-73
2022/06/23 07:07:03;;;;;;;6.37;2.40;;;17.10;99.90;;;;;;4134409;28;20201;-73
2022/06/23 07:09:26;;;;;;;5.33;2.17;;;17.30;99.90;;;;;;4134284;28;20226;-73
2022/06/23 07:11:33;;;;;;;5.33;2.33;;;17.40;99.90;;;;;;4138592;28;20167;-72
2022/06/23 07:13:46;;;;;;;6.90;2.43;;;17.70;99.90;;;;;;4138349;28;20174;-72
2022/06/23 07:16:13;;;;;;;6.40;2.57;;;17.70;99.90;;;;;;4137515;28;20190;-72
2022/06/23 07:18:40;;;;;;;6.73;2.17;;;17.80;99.90;;;;;;4137737;28;20202;-73
2022/06/23 07:20:55;;;;;;;3.50;2.60;;;18.00;99.90;;;;;;4136835;28;20284;-73
2022/06/23 07:23:08;;;;;;;4.20;2.00;;;18.00;99.90;;;;;;4137877;28;20225;-72
2022/06/23 07:25:19;;;;;;;6.27;2.13;;;18.10;99.90;;;;;;4137849;28;20236;-73
2022/06/23 07:27:42;;;;;;;6.47;2.53;;;18.20;98.90;;;;;;4137513;28;20186;-73
2022/06/23 07:30:10;;;;;;;3.07;2.27;;;18.40;98.70;;;;;;4137146;28;20190;-72
2022/06/23 07:32:45;;;;;;;4.97;1.87;;;18.60;96.20;;;;;;4137020;28;20288;-72
2022/06/23 07:34:53;;;;;;;6.23;2.33;;;18.60;96.30;;;;;;4137618;28;20630;-72
2022/06/23 07:36:57;;;;;;;5.23;2.10;;;18.60;95.90;;;;;;4139480;28;20193;-73
2022/06/23 07:39:20;;;;;;;4.87;2.20;;;18.80;95.20;;;;;;4137923;28;20582;-73
2022/06/23 07:41:39;;;;;;;4.63;2.30;;;18.90;95.30;;;;;;4138401;28;20240;-72
2022/06/23 07:43:55;;;;;;;7.67;2.73;;;19.10;96.20;;;;;;4131883;28;20896;-72
2022/06/23 07:45:58;;;;;;;3.67;2.30;;;19.30;96.30;;;;;;4130924;28;20185;-73
2022/06/23 07:47:59;;;;;;;9.07;2.33;;;19.30;95.80;;;;;;4133659;28;20198;-71
2022/06/23 07:50:01;;;;;;;3.67;2.10;;;19.40;97.80;;;;;;4135946;28;20182;-72
2022/06/23 07:52:03;;;;;;;6.57;2.10;;;19.50;95.60;;;;;;4135308;28;20193;-72
2022/06/23 07:54:06;;;;;;;4.00;2.60;;;19.70;96.10;;;;;;4136670;28;20182;-72
2022/06/23 07:56:12;;;;;;;6.17;2.30;;;19.80;94.80;;;;;;4135003;28;20961;-72
2022/06/23 07:58:15;;;;;;;7.10;2.37;;;19.80;93.80;;;;;;4134675;28;20233;-73
2022/06/23 08:00:16;;;;;;;5.73;2.00;;;20.00;96.50;;;;;;4135047;28;20225;-72
2022/06/23 08:02:34;;;;;;;8.37;3.13;;;20.10;96.30;;;;;;4134586;28;20186;-72
2022/06/23 08:05:00;;;;;;;5.93;2.13;;;20.40;94.10;;;;;;4135611;28;20175;-72
2022/06/23 08:07:04;;;;;;;24.60;23.00;;;20.40;93.00;;;;;;4135353;28;20178;-73
2022/06/23 08:09:17;;;;;;;5.60;2.73;;;20.30;92.50;;;;;;4134911;28;20259;-72
2022/06/23 08:13:40;;;;;;;4.50;2.87;;;20.50;92.80;;;;;;4135159;28;20244;-72
2022/06/23 08:18:26;;;;;;;10.20;3.23;;;20.50;93.50;;;;;;4134975;28;20313;-72
2022/06/23 08:20:33;;;;;;;7.57;2.50;;;20.30;92.60;;;;;;4134212;28;20244;-73
2022/06/23 08:22:37;;;;;;;11.20;3.50;;;20.50;92.50;;;;;;4135301;28;20163;-72
2022/06/23 08:24:40;;;;;;;8.97;3.67;;;20.60;92.20;;;;;;4134889;28;20206;-72
2022/06/23 08:26:47;;;;;;;13.53;9.27;;;20.70;92.40;;;;;;4134700;28;20179;-73
2022/06/23 08:28:52;;;;;;;10.77;7.83;;;20.60;91.20;;;;;;4135099;28;20209;-72
2022/06/23 08:30:53;;;;;;;27.50;25.57;;;20.50;91.10;;;;;;4135166;28;20190;-72
2022/06/23 08:32:55;;;;;;;5.43;2.70;;;20.70;90.70;;;;;;4135073;28;20645;-73
2022/06/23 08:35:28;;;;;;;8.10;3.13;;;20.70;91.10;;;;;;4134292;28;20186;-73
2022/06/23 08:37:34;;;;;;;6.87;3.07;;;20.90;91.40;;;;;;4133544;28;20199;-73
2022/06/23 08:40:21;;;;;;;12.60;3.50;;;21.20;91.70;;;;;;4135535;28;20229;-73
2022/06/23 08:42:34;;;;;;;15.90;13.53;;;21.40;89.60;;;;;;4120442;28;20194;-73
2022/06/23 08:44:54;;;;;;;10.80;4.03;;;21.80;87.10;;;;;;4134155;28;20166;-73
2022/06/23 08:46:58;;;;;;;11.27;3.77;;;21.40;86.00;;;;;;4134969;28;20202;-73
2022/06/23 08:49:17;;;;;;;12.43;5.27;;;21.60;85.30;;;;;;4131311;28;20674;-73
2022/06/23 08:51:21;;;;;;;11.50;3.87;;;21.60;79.30;;;;;;4131887;28;20189;-73
2022/06/23 08:53:27;;;;;;;14.87;5.27;;;21.30;80.90;;;;;;4132978;28;20186;-73
2022/06/23 08:55:39;;;;;;;13.27;4.67;;;21.30;84.10;;;;;;4133326;28;20230;-74
2022/06/23 08:57:55;;;;;;;9.70;2.83;;;21.70;82.30;;;;;;4131500;28;20192;-74
2022/06/23 09:00:02;;;;;;;8.73;6.00;;;21.50;81.30;;;;;;4132960;28;20249;-74
2022/06/23 09:02:21;;;;;;;7.17;2.87;;;21.60;80.30;;;;;;4132839;28;20534;-73
2022/06/23 09:04:40;;;;;;;9.87;3.23;;;21.80;82.20;;;;;;4133032;28;20174;-74
2022/06/23 09:07:16;;;;;;;10.97;3.33;;;22.10;81.60;;;;;;4132798;28;20194;-74
2022/06/23 09:09:55;;;;;;;7.20;2.90;;;21.90;82.30;;;;;;4098412;28;20210;-74
2022/06/23 09:12:28;;;;;;;9.90;3.10;;;22.20;81.10;;;;;;4130525;28;20254;-74
2022/06/23 09:15:05;;;;;;;9.77;5.47;;;22.40;80.10;;;;;;4132981;28;20169;-74
2022/06/23 09:17:12;;;;;;;14.13;4.53;;;22.60;75.60;;;;;;4104554;28;20197;-74
2022/06/23 09:19:52;;;;;;;7.17;2.77;;;22.70;73.00;;;;;;4132536;28;20935;-74
2022/06/23 09:22:08;;;;;;;9.73;3.17;;;22.60;75.30;;;;;;4131136;28;20304;-74
2022/06/23 09:24:30;;;;;;;10.00;3.00;;;23.00;79.60;;;;;;4131883;28;20780;-75
2022/06/23 09:26:59;;;;;;;13.83;3.40;;;23.30;75.30;;;;;;4147915;28;20272;-75
2022/06/23 09:29:22;;;;;;;11.40;10.23;;;23.40;71.70;;;;;;4147586;28;20805;-74
2022/06/23 09:31:43;;;;;;;11.37;3.30;;;23.60;70.00;;;;;;4126560;28;20210;-75
2022/06/23 09:34:09;;;;;;;10.00;7.13;;;23.70;69.00;;;;;;4133122;28;20170;-75
2022/06/23 09:36:12;;;;;;;5.97;2.83;;;23.40;69.50;;;;;;4133008;28;20256;-75
2022/06/23 09:38:43;;;;;;;10.23;3.23;;;23.50;68.70;;;;;;4131050;28;20277;-74
2022/06/23 09:41:19;;;;;;;8.53;3.20;;;23.70;68.90;;;;;;4132712;28;20213;-74
2022/06/23 09:43:34;;;;;;;11.47;3.03;;;24.10;68.00;;;;;;4132896;28;20158;-75
2022/06/23 09:45:56;;;;;;;8.87;3.20;;;24.20;64.10;;;;;;4132896;28;20179;-75
2022/06/23 09:48:14;;;;;;;9.03;3.07;;;24.40;66.00;;;;;;4091903;28;20210;-75
2022/06/23 09:50:25;;;;;;;7.37;3.07;;;24.20;64.50;;;;;;4131623;28;20239;-75
2022/06/23 09:52:55;;;;;;;9.73;3.03;;;23.80;66.10;;;;;;4132218;28;20174;-75
2022/06/23 09:55:14;;;;;;;11.10;3.40;;;23.50;64.60;;;;;;4131997;28;20167;-75
2022/06/23 09:57:31;;;;;;;9.70;2.80;;;23.90;67.30;;;;;;4131155;28;20174;-75
2022/06/23 09:59:37;;;;;;;6.00;2.90;;;24.50;62.90;;;;;;4131424;28;20213;-75
2022/06/23 10:01:56;;;;;;;10.20;4.20;;;24.50;64.10;;;;;;4132036;28;20178;-75
2022/06/23 10:04:00;;;;;;;12.90;4.43;;;24.60;60.00;;;;;;4130672;28;20669;-76
2022/06/23 10:06:09;;;;;;;8.67;4.53;;;24.20;60.50;;;;;;4131958;28;20193;-76
2022/06/23 10:08:29;;;;;;;7.63;2.70;;;24.00;61.40;;;;;;4131717;28;20663;-75
2022/06/23 10:10:33;;;;;;;10.23;3.43;;;24.30;61.50;;;;;;4130497;28;20274;-76
2022/06/23 10:12:55;;;;;;;12.63;7.90;;;24.50;59.30;;;;;;4130482;28;20277;-76
2022/06/23 10:15:33;;;;;;;9.87;2.60;;;24.50;59.30;;;;;;4131498;28;20829;-76
2022/06/23 10:17:51;;;;;;;11.43;9.30;;;24.70;55.50;;;;;;4131111;28;20852;-76
2022/06/23 10:20:19;;;;;;;11.70;6.13;;;24.90;57.30;;;;;;4133876;28;20236;-73
2022/06/23 10:22:43;;;;;;;9.53;3.23;;;24.70;56.70;;;;;;4132510;28;20171;-76
2022/06/23 10:24:59;;;;;;;8.90;2.77;;;24.90;54.50;;;;;;4133083;28;20159;-77
2022/06/23 10:27:14;;;;;;;8.90;4.23;;;25.50;55.80;;;;;;4132285;28;20167;-76
2022/06/23 10:29:40;;;;;;;10.07;3.03;;;25.70;53.10;;;;;;4131579;28;20291;-76
2022/06/23 10:31:52;;;;;;;13.67;7.27;;;25.60;55.40;;;;;;4131750;28;20175;-77
2022/06/23 10:33:57;;;;;;;5.13;2.30;;;26.10;54.30;;;;;;4132293;28;20665;-76
2022/06/23 10:36:39;;;;;;;10.10;5.70;;;26.30;52.20;;;;;;4131828;28;20538;-77
2022/06/23 10:39:01;;;;;;;9.53;3.43;;;26.60;50.60;;;;;;4144954;28;20738;-77
2022/06/23 10:41:13;;;;;;;6.67;2.70;;;26.50;47.30;;;;;;4132119;28;20236;-77
2022/06/23 10:43:29;;;;;;;10.73;3.30;;;27.80;47.60;;;;;;4131941;28;20162;-77
2022/06/23 10:45:45;;;;;;;9.07;2.83;;;28.20;45.40;;;;;;4130840;28;20744;-77
2022/06/23 10:48:22;;;;;;;9.65;3.17;;;27.70;47.90;;;;;;4131403;28;20201;-77
2022/06/23 10:50:52;;;;;;;16.60;14.82;;;28.80;44.00;;;;;;4133931;28;20194;-77
2022/06/23 10:53:12;;;;;;;7.90;3.30;;;29.10;42.40;;;;;;4122887;28;20202;-75
2022/06/23 10:55:35;;;;;;;11.00;5.57;;;28.80;43.20;;;;;;4135581;28;20205;-78
2022/06/23 10:58:18;;;;;;;8.23;2.78;;;28.60;42.00;;;;;;4135228;28;20194;-77
2022/06/23 11:01:10;;;;;;;6.95;3.25;;;29.60;41.70;;;;;;4133878;28;20244;-76
2022/06/23 11:03:58;;;;;;;8.05;4.65;;;29.30;41.90;;;;;;4084540;29;20809;-77
2022/06/23 11:06:30;;;;;;;8.65;4.03;;;30.00;38.90;;;;;;4081373;29;20601;-77
2022/06/23 11:08:47;;;;;;;11.90;4.30;;;29.90;39.10;;;;;;4097326;28;20277;-79
2022/06/23 11:11:16;;;;;;;7.38;2.70;;;29.20;38.60;;;;;;4133511;28;20648;-78
2022/06/23 11:13:24;;;;;;;13.02;2.83;;;29.00;41.40;;;;;;4133157;28;20622;-78
2022/06/23 11:15:30;;;;;;;9.02;2.80;;;30.00;38.60;;;;;;4133566;28;20162;-79
2022/06/23 11:17:46;;;;;;;7.55;3.25;;;29.80;38.30;;;;;;4132539;28;20182;-78
2022/06/23 11:20:05;;;;;;;6.60;3.08;;;30.50;37.30;;;;;;4133415;28;20202;-77
2022/06/23 11:22:35;;;;;;;9.40;3.70;;;31.10;36.00;;;;;;4134466;28;20592;-79
2022/06/23 11:25:06;;;;;;;5.38;3.10;;;30.50;38.00;;;;;;4132726;28;20177;-78
2022/06/23 11:27:41;;;;;;;6.57;3.47;;;31.30;35.20;;;;;;4133126;28;20191;-78
2022/06/23 11:29:57;;;;;;;15.88;14.68;;;30.90;36.00;;;;;;4132499;28;20217;-78
2022/06/23 11:32:19;;;;;;;6.72;4.82;;;31.80;34.20;;;;;;4132633;28;20549;-78
2022/06/23 11:34:54;;;;;;;8.93;2.78;;;31.60;35.40;;;;;;4132403;28;20162;-82
2022/06/23 11:37:09;;;;;;;6.57;2.63;;;31.80;33.40;;;;;;4131105;28;20801;-81
2022/06/23 11:39:49;;;;;;;9.18;2.90;;;32.60;33.70;;;;;;4131541;28;20202;-81
2022/06/23 11:42:03;;;;;;;8.10;3.78;;;33.80;33.30;;;;;;4083206;29;20719;-77
2022/06/23 11:44:37;;;;;;;8.77;4.68;;;33.00;33.30;;;;;;4082821;29;20212;-78